Time;durP1;ratioP1;P1;durP2;ratioP2;P2;SDS_P1;SDS_P2;PMS_P1;PMS_P2;Temp;Humidity;BMP_temperature;BMP_pressure;BME280_temperature;BME280_humidity;BME280_pressure;Samples;Min_cycle;Max_cycle;Signal;HPM_P1;HPM_P2
2022/03/29 00:05:20;;;;;;;39.03;18.48;;;12.10;99.90;;;;;;6730630;88;20188;-81
2022/03/29 00:15:22;;;;;;;35.55;17.27;;;12.10;99.90;;;;;;6725479;88;20189;-81
2022/03/29 00:25:23;;;;;;;34.80;17.10;;;11.80;99.90;;;;;;6729611;88;20181;-81
2022/03/29 00:35:24;;;;;;;39.13;16.73;;;11.90;99.90;;;;;;6710850;88;20263;-81
2022/03/29 00:45:24;;;;;;;36.60;17.00;;;11.90;99.90;;;;;;6707392;88;20275;-81
2022/03/29 00:55:25;;;;;;;37.95;17.08;;;12.00;99.90;;;;;;6710411;88;20232;-81
2022/03/29 01:05:26;;;;;;;36.42;18.27;;;11.90;99.90;;;;;;6711074;88;20249;-81
2022/03/29 01:15:29;;;;;;;43.20;19.05;;;11.90;99.90;;;;;;6710265;88;20221;-81
2022/03/29 01:25:34;;;;;;;34.90;17.87;;;11.70;99.90;;;;;;6710619;88;20241;-81
2022/03/29 01:35:36;;;;;;;40.93;18.93;;;11.70;99.90;;;;;;6710187;88;20225;-80
2022/03/29 01:45:36;;;;;;;34.75;17.45;;;11.50;99.90;;;;;;6709921;88;20294;-81
2022/03/29 01:55:37;;;;;;;37.30;18.48;;;11.50;99.90;;;;;;6705185;88;20710;-81
2022/03/29 02:05:37;;;;;;;36.42;17.40;;;11.60;99.90;;;;;;6705569;88;20217;-82
2022/03/29 02:15:39;;;;;;;30.23;16.02;;;11.50;99.90;;;;;;6710560;88;20296;-81
2022/03/29 02:25:41;;;;;;;34.83;16.55;;;11.30;99.90;;;;;;6727222;88;20222;-81
2022/03/29 02:35:41;;;;;;;31.25;16.02;;;11.40;99.90;;;;;;6680313;88;20236;-81
2022/03/29 02:45:42;;;;;;;33.70;16.73;;;11.30;99.90;;;;;;6654484;88;20205;-81
2022/03/29 02:55:43;;;;;;;40.00;16.67;;;11.10;99.90;;;;;;6653032;89;20808;-81
2022/03/29 03:05:43;;;;;;;36.60;16.20;;;11.00;99.90;;;;;;6657137;88;20287;-81
2022/03/29 03:15:44;;;;;;;34.35;16.17;;;11.10;99.90;;;;;;6654316;88;20189;-82
2022/03/29 03:25:44;;;;;;;37.05;15.85;;;10.80;99.90;;;;;;6655250;89;20177;-81
2022/03/29 03:35:45;;;;;;;37.78;15.75;;;10.80;99.90;;;;;;6661350;88;20210;-80
2022/03/29 03:45:46;;;;;;;35.03;16.30;;;10.60;99.90;;;;;;6660263;88;20747;-81
2022/03/29 03:55:47;;;;;;;37.88;15.52;;;10.60;99.90;;;;;;6659951;89;20263;-81
2022/03/29 04:05:47;;;;;;;38.42;16.30;;;10.60;99.90;;;;;;6656341;89;20219;-80
2022/03/29 04:15:48;;;;;;;37.17;16.37;;;10.60;99.90;;;;;;6657393;88;20201;-81
2022/03/29 04:25:49;;;;;;;32.38;15.80;;;10.60;99.90;;;;;;6659961;88;20174;-80
2022/03/29 04:35:50;;;;;;;37.27;15.53;;;10.60;99.90;;;;;;6658939;88;20668;-81
2022/03/29 04:45:50;;;;;;;40.80;16.25;;;10.50;99.90;;;;;;6659678;89;20497;-80
2022/03/29 04:55:51;;;;;;;38.03;16.30;;;10.40;99.90;;;;;;6658356;89;20633;-81
2022/03/29 05:05:52;;;;;;;39.70;16.67;;;10.30;99.90;;;;;;6659702;88;20222;-81
2022/03/29 05:15:52;;;;;;;35.08;16.62;;;10.10;99.90;;;;;;6658793;89;20541;-81
2022/03/29 05:25:53;;;;;;;35.50;15.32;;;10.20;99.90;;;;;;6743708;88;20224;-81
2022/03/29 05:35:53;;;;;;;38.75;17.00;;;10.10;99.90;;;;;;6744756;88;20222;-81
2022/03/29 05:56:13;;;;;;;36.38;17.73;;;10.10;99.90;;;;;;6746335;88;20186;-81
2022/03/29 06:06:13;;;;;;;37.38;16.05;;;10.10;99.90;;;;;;6742088;88;20220;-80
2022/03/29 06:16:14;;;;;;;40.25;17.25;;;10.20;99.90;;;;;;6739730;88;20189;-84
2022/03/29 06:26:14;;;;;;;39.75;17.35;;;10.30;99.90;;;;;;6739304;88;20278;-81
2022/03/29 06:36:16;;;;;;;41.70;18.98;;;10.50;99.90;;;;;;6744652;88;20188;-82
2022/03/29 06:46:17;;;;;;;42.72;18.95;;;10.40;99.90;;;;;;6742596;88;20217;-82
2022/03/29 06:56:18;;;;;;;44.15;18.52;;;10.60;99.90;;;;;;6738093;88;20206;-81
2022/03/29 07:06:18;;;;;;;47.85;19.20;;;10.70;99.90;;;;;;6740408;88;20298;-80
2022/03/29 07:16:20;;;;;;;39.17;18.08;;;10.90;99.90;;;;;;6741181;88;20192;-82
2022/03/29 07:26:20;;;;;;;38.80;18.08;;;11.30;99.90;;;;;;6739491;88;20202;-81
2022/03/29 07:36:21;;;;;;;44.60;19.05;;;11.50;99.90;;;;;;6734971;88;20205;-81
2022/03/29 07:46:21;;;;;;;41.15;18.65;;;11.70;99.90;;;;;;6735765;88;20549;-81
2022/03/29 07:56:22;;;;;;;41.43;19.17;;;11.90;99.90;;;;;;6681997;89;20678;-81
2022/03/29 08:06:22;;;;;;;43.42;19.65;;;12.40;99.90;;;;;;6702152;88;20558;-81
2022/03/29 08:16:23;;;;;;;41.95;19.75;;;12.90;99.90;;;;;;6732299;88;20194;-82
2022/03/29 08:26:24;;;;;;;48.47;20.73;;;13.20;99.90;;;;;;6739288;88;20219;-81
2022/03/29 08:36:24;;;;;;;43.35;20.48;;;13.90;99.90;;;;;;6738349;88;20264;-81
2022/03/29 08:47:06;;;;;;;38.92;20.05;;;14.30;99.90;;;;;;6738877;77;20236;-79
2022/03/29 08:57:06;;;;;;;41.63;20.00;;;14.80;99.90;;;;;;6660121;88;20245;-78
2022/03/29 09:07:07;;;;;;;40.55;19.62;;;14.50;99.90;;;;;;6660422;89;20278;-81
2022/03/29 09:17:26;;;;;;;39.90;20.05;;;14.60;99.90;;;;;;6663182;89;20204;-78
2022/03/29 09:27:27;;;;;;;42.00;19.12;;;15.40;99.90;;;;;;6655915;88;20250;-78
2022/03/29 09:37:34;;;;;;;37.03;19.55;;;15.60;99.90;;;;;;6655447;88;20199;-78
2022/03/29 09:47:35;;;;;;;39.20;18.48;;;15.70;99.90;;;;;;6653655;88;20203;-78
2022/03/29 09:57:37;;;;;;;30.42;17.00;;;16.90;99.90;;;;;;6655673;89;20194;-79
2022/03/29 10:07:43;;;;;;;31.20;17.02;;;16.60;99.90;;;;;;6650354;89;20237;-79
2022/03/29 10:17:45;;;;;;;32.22;15.68;;;17.20;99.60;;;;;;6654494;89;20301;-78
2022/03/29 10:27:48;;;;;;;28.92;15.10;;;17.40;99.50;;;;;;6651822;88;20188;-79
2022/03/29 10:37:55;;;;;;;31.50;15.07;;;18.20;97.00;;;;;;6654486;89;20240;-79
2022/03/29 10:48:09;;;;;;;25.45;14.40;;;18.20;95.90;;;;;;6654340;89;20234;-79
2022/03/29 10:58:13;;;;;;;30.07;13.97;;;18.20;95.90;;;;;;6661064;88;20350;-80
2022/03/29 11:08:18;;;;;;;24.75;12.18;;;18.90;95.10;;;;;;6655669;89;20533;-78
2022/03/29 11:18:31;;;;;;;24.27;12.77;;;19.80;93.10;;;;;;6650474;89;20209;-79
2022/03/29 11:28:32;;;;;;;24.35;13.07;;;20.00;92.40;;;;;;6652760;89;20183;-79
2022/03/29 11:38:33;;;;;;;19.20;10.50;;;20.00;90.80;;;;;;6652582;89;20192;-79
2022/03/29 11:48:35;;;;;;;21.25;10.88;;;19.90;91.40;;;;;;6654418;88;20210;-78
2022/03/29 11:58:51;;;;;;;20.60;10.32;;;20.10;90.00;;;;;;6655671;88;20217;-79
2022/03/29 12:09:08;;;;;;;16.23;8.00;;;20.60;88.40;;;;;;6651886;88;20238;-79
2022/03/29 12:19:19;;;;;;;13.05;6.43;;;21.40;85.30;;;;;;6652010;89;20205;-80
2022/03/29 12:29:24;;;;;;;11.65;6.32;;;22.30;82.70;;;;;;6652174;89;20192;-79
2022/03/29 12:39:32;;;;;;;12.27;6.45;;;23.00;80.10;;;;;;6655783;88;20250;-79
2022/03/29 12:49:34;;;;;;;11.43;5.95;;;22.90;78.30;;;;;;6655776;88;20337;-79
2022/03/29 12:59:37;;;;;;;12.73;7.30;;;22.80;76.20;;;;;;6652434;88;20808;-79
2022/03/29 13:09:38;;;;;;;12.33;7.10;;;22.70;75.10;;;;;;6656244;88;20196;-79
2022/03/29 13:19:53;;;;;;;16.77;7.62;;;22.50;76.10;;;;;;6656230;88;20212;-80
2022/03/29 13:29:54;;;;;;;14.85;7.75;;;22.00;76.80;;;;;;6653493;88;20183;-79
2022/03/29 13:39:54;;;;;;;13.45;7.32;;;21.80;77.30;;;;;;6657140;88;20203;-80
2022/03/29 13:49:55;;;;;;;15.68;7.32;;;21.70;77.20;;;;;;6662458;89;20203;-80
2022/03/29 13:59:55;;;;;;;13.80;6.80;;;21.30;77.50;;;;;;6662685;88;20187;-80
2022/03/29 14:09:56;;;;;;;14.25;6.30;;;21.00;77.30;;;;;;6657696;89;20196;-80
2022/03/29 14:19:57;;;;;;;12.85;5.68;;;20.50;77.20;;;;;;6657703;88;20619;-79
2022/03/29 14:29:57;;;;;;;8.93;4.93;;;20.40;77.40;;;;;;6656968;89;20345;-80
2022/03/29 14:50:02;;;;;;;7.87;4.85;;;20.30;77.00;;;;;;6731023;88;20168;-81
2022/03/29 15:00:06;;;;;;;11.18;6.97;;;19.90;76.80;;;;;;6744808;88;20263;-81
2022/03/29 15:10:08;;;;;;;14.70;8.95;;;19.50;79.00;;;;;;6740731;88;20175;-81
2022/03/29 15:20:09;;;;;;;26.58;13.98;;;19.20;81.10;;;;;;6741124;88;20182;-80
2022/03/29 15:30:10;;;;;;;31.37;16.65;;;18.90;83.80;;;;;;6746513;88;20233;-81
2022/03/29 15:40:11;;;;;;;32.22;16.62;;;18.50;86.20;;;;;;6745815;88;21178;-80
2022/03/29 15:50:12;;;;;;;27.73;16.50;;;18.10;87.50;;;;;;6721424;88;20213;-79
2022/03/29 16:00:13;;;;;;;32.60;17.52;;;17.90;88.60;;;;;;6739163;88;20877;-79
2022/03/29 16:10:14;;;;;;;29.52;15.93;;;17.50;88.80;;;;;;6706764;88;20245;-80
2022/03/29 16:20:15;;;;;;;28.97;16.40;;;17.10;90.10;;;;;;6707148;88;20310;-83
2022/03/29 16:30:18;;;;;;;29.12;15.57;;;17.00;90.10;;;;;;6706936;88;20532;-81
2022/03/29 16:40:19;;;;;;;24.10;13.90;;;17.10;90.30;;;;;;6735891;88;20252;-80
2022/03/29 16:50:21;;;;;;;20.92;12.32;;;16.80;90.40;;;;;;6731218;88;20219;-80
2022/03/29 17:00:22;;;;;;;20.23;10.70;;;16.60;89.70;;;;;;6727144;88;20226;-79
2022/03/29 17:10:22;;;;;;;17.20;9.52;;;16.30;88.90;;;;;;6737583;88;20236;-79
2022/03/29 17:20:23;;;;;;;17.58;9.52;;;16.10;87.70;;;;;;6739459;88;20189;-79
2022/03/29 17:30:25;;;;;;;15.30;8.30;;;15.80;88.30;;;;;;6726984;88;20232;-80
2022/03/29 17:40:26;;;;;;;16.48;9.00;;;15.60;88.90;;;;;;6735913;88;20166;-80
2022/03/29 17:50:26;;;;;;;16.05;8.52;;;15.20;88.60;;;;;;6744455;88;20160;-82
2022/03/29 18:00:27;;;;;;;14.83;8.80;;;15.00;89.00;;;;;;6739016;88;20197;-80
2022/03/29 18:10:28;;;;;;;17.20;9.90;;;14.90;90.00;;;;;;6709566;88;21212;-80
2022/03/29 18:20:28;;;;;;;17.70;9.40;;;14.60;90.20;;;;;;6716526;88;20499;-79
2022/03/29 18:30:29;;;;;;;17.42;9.43;;;14.50;90.80;;;;;;6715449;88;20512;-82
2022/03/29 18:40:29;;;;;;;18.60;9.32;;;14.10;91.10;;;;;;6710633;88;20618;-78
2022/03/29 18:50:30;;;;;;;18.73;9.73;;;14.00;91.20;;;;;;6708557;88;20640;-81
2022/03/29 19:00:33;;;;;;;16.50;8.82;;;13.90;91.30;;;;;;6700119;88;20216;-80
2022/03/29 19:10:33;;;;;;;16.80;9.50;;;13.70;91.20;;;;;;6637679;88;20209;-79
2022/03/29 19:20:34;;;;;;;12.98;8.40;;;13.60;90.80;;;;;;6640357;88;20238;-80
2022/03/29 19:30:35;;;;;;;16.60;8.95;;;13.50;90.90;;;;;;6710068;88;20605;-79
2022/03/29 19:40:36;;;;;;;14.43;8.48;;;13.30;91.40;;;;;;6707250;88;20237;-79
2022/03/29 19:50:37;;;;;;;12.75;8.23;;;13.10;91.60;;;;;;6708507;88;20193;-78
2022/03/29 20:00:40;;;;;;;15.35;8.95;;;13.10;91.80;;;;;;6707659;88;20205;-80
2022/03/29 20:10:42;;;;;;;15.68;9.40;;;13.10;91.70;;;;;;6711224;88;20189;-80
2022/03/29 20:20:44;;;;;;;14.95;8.93;;;13.00;92.10;;;;;;6710818;88;20203;-80
2022/03/29 20:30:45;;;;;;;15.85;9.32;;;12.90;92.30;;;;;;6713494;88;20181;-80
2022/03/29 20:40:45;;;;;;;18.08;9.52;;;12.90;92.40;;;;;;6715512;88;20232;-79
2022/03/29 20:50:51;;;;;;;15.70;9.05;;;12.80;92.70;;;;;;6730603;88;20173;-82
2022/03/29 21:00:51;;;;;;;16.33;8.40;;;12.70;92.70;;;;;;6728263;88;20226;-81
2022/03/29 21:10:52;;;;;;;15.73;9.20;;;12.60;93.00;;;;;;6727881;88;20327;-80
2022/03/29 21:20:53;;;;;;;17.12;9.55;;;12.40;94.50;;;;;;6724733;88;20616;-81
2022/03/29 21:30:54;;;;;;;18.50;10.55;;;12.30;95.20;;;;;;6726411;88;21026;-81
2022/03/29 21:40:55;;;;;;;17.05;10.10;;;12.00;95.00;;;;;;6728261;88;20197;-80
2022/03/29 21:50:56;;;;;;;20.47;10.43;;;12.00;95.30;;;;;;6727802;88;20195;-80
2022/03/29 22:01:02;;;;;;;17.62;10.38;;;12.10;95.20;;;;;;6728060;88;20182;-81
2022/03/29 22:11:03;;;;;;;18.73;10.77;;;12.20;95.40;;;;;;6725113;88;20728;-81
2022/03/29 22:21:03;;;;;;;21.67;12.02;;;12.10;95.60;;;;;;6721737;88;20218;-81
2022/03/29 22:31:04;;;;;;;23.12;12.77;;;12.10;98.60;;;;;;6723864;88;20233;-79
2022/03/29 22:41:05;;;;;;;25.70;13.82;;;11.80;99.90;;;;;;6703989;88;20255;-78
2022/03/29 22:51:05;;;;;;;27.85;13.77;;;11.80;99.90;;;;;;6707110;88;20218;-78
2022/03/29 23:01:06;;;;;;;29.12;15.27;;;11.50;99.90;;;;;;6709847;88;20227;-79
2022/03/29 23:11:07;;;;;;;30.20;15.23;;;11.50;99.90;;;;;;6724853;88;20180;-78
2022/03/29 23:21:08;;;;;;;29.55;16.08;;;11.30;99.90;;;;;;6725279;88;20201;-78
2022/03/29 23:31:09;;;;;;;33.08;16.77;;;11.20;99.90;;;;;;6724891;88;20203;-77
2022/03/29 23:41:09;;;;;;;32.50;16.42;;;11.00;99.90;;;;;;6721186;88;20222;-77
2022/03/29 23:51:10;;;;;;;34.05;16.77;;;11.00;99.90;;;;;;6726656;88;20424;-78
